Time,TemperatureF,DewpointF,PressureIn,WindDirection,WindDirectionDegrees,WindSpeedMPH,WindSpeedGustMPH,Humidity,HourlyPrecipIn,Conditions,Clouds,dailyrainin,SolarRadiationWatts/m^2,SoftwareType,DateUTC
2014-03-01 00:00:00,65.2,38.9,29.79,SSW,205,12.0,12.0,38,0.00,,,0.00,0,Wunderground v.1.15,2014-03-01 06:00:00,
2014-03-01 00:05:00,64.6,39.1,29.79,SSW,202,12.0,13.0,39,0.00,,,0.00,0,Wunderground v.1.15,2014-03-01 06:05:00,
2014-03-01 00:15:00,63.6,39.5,29.79,SSW,207,12.0,29.0,41,0.00,,,0.00,0,Wunderground v.1.15,2014-03-01 06:15:00,
2014-03-01 00:20:00,63.3,38.6,29.79,SW,217,11.0,29.0,40,0.00,,,0.00,0,Wunderground v.1.15,2014-03-01 06:20:00,
2014-03-01 00:25:00,63.1,38.4,29.79,SW,220,9.0,29.0,40,0.00,,,0.00,0,Wunderground v.1.15,2014-03-01 06:25:00,
2014-03-01 00:30:00,63.2,37.2,29.79,SSW,212,9.0,9.0,38,0.00,,,0.00,0,Wunderground v.1.15,2014-03-01 06:30:00,
2014-03-01 00:35:00,63.2,36.5,29.79,SSW,202,9.0,29.0,37,0.00,,,0.00,0,Wunderground v.1.15,2014-03-01 06:35:00,
2014-03-01 00:40:00,63.2,35.8,29.79,SSW,213,8.0,29.0,36,0.00,,,0.00,0,Wunderground v.1.15,2014-03-01 06:40:00,
2014-03-01 00:50:00,63.2,34.3,29.79,SSW,207,9.0,9.0,34,0.00,,,0.00,0,Wunderground v.1.15,2014-03-01 06:50:00,
2014-03-01 00:55:00,63.3,34.4,29.80,SSW,211,9.0,29.0,34,0.00,,,0.00,0,Wunderground v.1.15,2014-03-01 06:55:00,
2014-03-01 01:00:00,63.1,35.7,29.80,SW,219,7.0,7.0,36,0.00,,,0.00,0,Wunderground v.1.15,2014-03-01 07:00:00,
2014-03-01 01:05:00,62.5,35.9,29.80,WSW,238,5.0,29.0,37,0.00,,,0.00,0,Wunderground v.1.15,2014-03-01 07:05:00,
2014-03-01 01:15:00,61.3,36.1,29.80,West,260,3.0,29.0,39,0.00,,,0.00,0,Wunderground v.1.15,2014-03-01 07:15:00,
2014-03-01 01:25:00,60.5,33.4,29.80,SSW,203,6.0,29.0,36,0.00,,,0.00,0,Wunderground v.1.15,2014-03-01 07:25:00,
2014-03-01 01:30:00,60.7,33.6,29.80,SW,218,8.0,29.0,36,0.00,,,0.00,0,Wunderground v.1.15,2014-03-01 07:30:00,
2014-03-01 01:35:00,61.0,33.8,29.80,SSW,196,9.0,29.0,36,0.00,,,0.00,0,Wunderground v.1.15,2014-03-01 07:35:00,
2014-03-01 01:40:00,61.3,33.4,29.80,SW,221,9.0,29.0,35,0.00,,,0.00,0,Wunderground v.1.15,2014-03-01 07:40:00,
2014-03-01 01:45:00,61.5,33.6,29.80,SW,221,8.0,29.0,35,0.00,,,0.00,0,Wunderground v.1.15,2014-03-01 07:45:00,
2014-03-01 01:50:00,61.7,33.7,29.80,SSW,212,8.0,29.0,35,0.00,,,0.00,0,Wunderground v.1.15,2014-03-01 07:50:00,
2014-03-01 02:00:00,61.9,33.9,29.80,SW,214,9.0,9.0,35,0.00,,,0.00,0,Wunderground v.1.15,2014-03-01 08:00:00,
2014-03-01 02:05:00,62.0,34.0,29.80,SSW,202,10.0,10.0,35,0.00,,,0.00,0,Wunderground v.1.15,2014-03-01 08:05:00,
2014-03-01 02:10:00,62.2,34.2,29.80,SSW,200,10.0,10.0,35,0.00,,,0.00,0,Wunderground v.1.15,2014-03-01 08:10:00,
2014-03-01 02:15:00,62.3,35.0,29.80,SSW,194,10.0,12.0,36,0.00,,,0.00,0,Wunderground v.1.15,2014-03-01 08:15:00,
2014-03-01 02:20:00,62.3,35.0,29.80,SSW,213,11.0,29.0,36,0.00,,,0.00,0,Wunderground v.1.15,2014-03-01 08:20:00,
2014-03-01 02:25:00,62.1,35.5,29.80,SW,230,11.0,29.0,37,0.00,,,0.00,0,Wunderground v.1.15,2014-03-01 08:25:00,
2014-03-01 02:35:00,61.4,35.5,29.80,SSW,211,9.0,12.0,38,0.00,,,0.00,0,Wunderground v.1.15,2014-03-01 08:35:00,
2014-03-01 02:40:00,61.2,35.4,29.80,SW,219,10.0,10.0,38,0.00,,,0.00,0,Wunderground v.1.15,2014-03-01 08:40:00,
2014-03-01 02:45:00,61.3,35.5,29.80,SW,218,10.0,13.0,38,0.00,,,0.00,0,Wunderground v.1.15,2014-03-01 08:45:00,
2014-03-01 02:50:00,61.4,34.9,29.80,SSW,213,10.0,10.0,37,0.00,,,0.00,0,Wunderground v.1.15,2014-03-01 08:50:00,
2014-03-01 02:55:00,61.7,35.1,29.81,SW,225,10.0,29.0,37,0.00,,,0.00,0,Wunderground v.1.15,2014-03-01 08:55:00,
2014-03-01 03:00:00,61.8,35.2,29.81,SW,229,9.0,9.0,37,0.00,,,0.00,0,Wunderground v.1.15,2014-03-01 09:00:00,
2014-03-01 03:05:00,61.9,35.3,29.81,SW,227,7.0,29.0,37,0.00,,,0.00,0,Wunderground v.1.15,2014-03-01 09:05:00,
2014-03-01 03:15:00,61.6,35.7,29.81,WSW,238,5.0,29.0,38,0.00,,,0.00,0,Wunderground v.1.15,2014-03-01 09:15:00,
2014-03-01 03:20:00,61.4,35.5,29.81,SW,228,5.0,29.0,38,0.00,,,0.00,0,Wunderground v.1.15,2014-03-01 09:20:00,
2014-03-01 03:25:00,61.1,35.3,29.81,SSW,213,5.0,29.0,38,0.00,,,0.00,0,Wunderground v.1.15,2014-03-01 09:25:00,
2014-03-01 03:30:00,60.9,35.1,29.81,SW,215,6.0,29.0,38,0.00,,,0.00,0,Wunderground v.1.15,2014-03-01 09:30:00,
2014-03-01 03:35:00,60.8,35.0,29.81,WSW,244,6.0,29.0,38,0.00,,,0.00,0,Wunderground v.1.15,2014-03-01 09:35:00,
2014-03-01 03:40:00,60.7,35.6,29.81,WSW,252,4.0,4.0,39,0.00,,,0.00,0,Wunderground v.1.15,2014-03-01 09:40:00,
2014-03-01 03:50:00,60.4,34.7,29.82,SW,217,4.0,29.0,38,0.00,,,0.00,0,Wunderground v.1.15,2014-03-01 09:50:00,
2014-03-01 03:55:00,60.5,34.7,29.82,SW,229,5.0,29.0,38,0.00,,,0.00,0,Wunderground v.1.15,2014-03-01 09:55:00,
2014-03-01 04:00:00,60.7,34.9,29.82,SW,225,6.0,6.0,38,0.00,,,0.00,0,Wunderground v.1.15,2014-03-01 10:00:00,
2014-03-01 04:05:00,60.7,34.9,29.82,SW,225,6.0,7.0,38,0.00,,,0.00,0,Wunderground v.1.15,2014-03-01 10:05:00,
2014-03-01 04:10:00,60.6,34.8,29.82,SW,224,6.0,29.0,38,0.00,,,0.00,0,Wunderground v.1.15,2014-03-01 10:10:00,
2014-03-01 04:15:00,60.6,34.8,29.82,SW,229,6.0,29.0,38,0.00,,,0.00,0,Wunderground v.1.15,2014-03-01 10:15:00,
2014-03-01 04:25:00,60.6,34.8,29.82,SW,223,5.0,29.0,38,0.00,,,0.00,0,Wunderground v.1.15,2014-03-01 10:25:00,
2014-03-01 04:30:00,60.5,34.7,29.82,SW,232,5.0,29.0,38,0.00,,,0.00,0,Wunderground v.1.15,2014-03-01 10:30:00,
2014-03-01 04:35:00,60.5,34.7,29.83,SW,218,5.0,29.0,38,0.00,,,0.00,0,Wunderground v.1.15,2014-03-01 10:35:00,
2014-03-01 04:40:00,60.4,35.3,29.83,SSW,211,5.0,29.0,39,0.00,,,0.00,0,Wunderground v.1.15,2014-03-01 10:40:00,
2014-03-01 04:45:00,60.4,35.3,29.83,SSW,207,5.0,29.0,39,0.00,,,0.00,0,Wunderground v.1.15,2014-03-01 10:45:00,
2014-03-01 04:50:00,60.3,35.2,29.83,SSW,207,6.0,29.0,39,0.00,,,0.00,0,Wunderground v.1.15,2014-03-01 10:50:00,
2014-03-01 04:55:00,60.1,35.0,29.83,SW,217,7.0,29.0,39,0.00,,,0.00,0,Wunderground v.1.15,2014-03-01 10:55:00,
2014-03-01 05:05:00,59.9,34.9,29.84,SW,214,6.0,29.0,39,0.00,,,0.00,0,Wunderground v.1.15,2014-03-01 11:05:00,
2014-03-01 05:10:00,59.8,34.8,29.84,SSW,208,4.0,4.0,39,0.00,,,0.00,0,Wunderground v.1.15,2014-03-01 11:10:00,
2014-03-01 05:15:00,59.3,35.0,29.84,East,90,2.0,29.0,40,0.00,,,0.00,0,Wunderground v.1.15,2014-03-01 11:15:00,
2014-03-01 05:20:00,57.4,35.1,29.84,East,83,2.0,29.0,43,0.00,,,0.00,0,Wunderground v.1.15,2014-03-01 11:20:00,
2014-03-01 05:25:00,55.8,35.9,29.84,East,87,2.0,29.0,47,0.00,,,0.00,0,Wunderground v.1.15,2014-03-01 11:25:00,
2014-03-01 05:30:00,54.6,37.3,29.85,East,100,2.0,29.0,52,0.00,,,0.00,0,Wunderground v.1.15,2014-03-01 11:30:00,
2014-03-01 05:40:00,52.8,38.9,29.85,East,101,3.0,29.0,59,0.00,,,0.00,0,Wunderground v.1.15,2014-03-01 11:40:00,
2014-03-01 05:45:00,52.3,40.1,29.86,East,98,3.0,29.0,63,0.00,,,0.00,0,Wunderground v.1.15,2014-03-01 11:45:00,
2014-03-01 05:50:00,52.1,40.7,29.86,East,98,2.0,2.0,65,0.00,,,0.00,0,Wunderground v.1.15,2014-03-01 11:50:00,
2014-03-01 05:55:00,51.8,41.6,29.86,East,100,2.0,3.0,68,0.00,,,0.00,0,Wunderground v.1.15,2014-03-01 11:55:00,
2014-03-01 06:00:00,51.6,41.4,29.85,East,100,2.0,29.0,68,0.00,,,0.00,0,Wunderground v.1.15,2014-03-01 12:00:00,
2014-03-01 06:05:00,51.3,41.8,29.86,ESE,107,2.0,29.0,70,0.00,,,0.00,0,Wunderground v.1.15,2014-03-01 12:05:00,
2014-03-01 06:15:00,51.4,42.3,29.86,ESE,114,3.0,29.0,71,0.00,,,0.00,0,Wunderground v.1.15,2014-03-01 12:15:00,
2014-03-01 06:20:00,51.4,42.3,29.87,SE,128,3.0,29.0,71,0.00,,,0.00,0,Wunderground v.1.15,2014-03-01 12:20:00,
2014-03-01 06:25:00,51.7,41.9,29.87,SE,134,4.0,29.0,69,0.00,,,0.00,0,Wunderground v.1.15,2014-03-01 12:25:00,
2014-03-01 06:30:00,52.1,41.1,29.87,ESE,110,4.0,4.0,66,0.00,,,0.00,0,Wunderground v.1.15,2014-03-01 12:30:00,
2014-03-01 06:35:00,52.5,41.1,29.87,ESE,105,3.0,29.0,65,0.00,,,0.00,0,Wunderground v.1.15,2014-03-01 12:35:00,
2014-03-01 06:40:00,52.6,41.6,29.87,ESE,102,1.0,1.0,66,0.00,,,0.00,0,Wunderground v.1.15,2014-03-01 12:40:00,
2014-03-01 06:50:00,52.5,41.1,29.87,ESE,102,1.0,29.0,65,0.00,,,0.00,0,Wunderground v.1.15,2014-03-01 12:50:00,
2014-03-01 06:55:00,52.5,40.7,29.87,ESE,113,2.0,29.0,64,0.00,,,0.00,0,Wunderground v.1.15,2014-03-01 12:55:00,
2014-03-01 07:00:00,52.5,40.7,29.87,ESE,113,1.0,1.0,64,0.00,,,0.00,0,Wunderground v.1.15,2014-03-01 13:00:00,
2014-03-01 07:05:00,52.4,40.2,29.87,ESE,113,0.0,29.0,63,0.00,,,0.00,7,Wunderground v.1.15,2014-03-01 13:05:00,
2014-03-01 07:10:00,52.0,40.2,29.88,ESE,113,1.0,29.0,64,0.00,,,0.00,11,Wunderground v.1.15,2014-03-01 13:10:00,
2014-03-01 07:15:00,51.5,40.1,29.88,ESE,113,1.0,29.0,65,0.00,,,0.00,14,Wunderground v.1.15,2014-03-01 13:15:00,
2014-03-01 07:20:00,51.4,40.4,29.88,ESE,113,2.0,29.0,66,0.00,,,0.00,23,Wunderground v.1.15,2014-03-01 13:20:00,
2014-03-01 07:25:00,51.4,40.4,29.88,SE,144,2.0,29.0,66,0.00,,,0.00,30,Wunderground v.1.15,2014-03-01 13:25:00,
2014-03-01 07:30:00,51.5,40.1,29.89,SSE,159,2.0,29.0,65,0.00,,,0.00,33,Wunderground v.1.15,2014-03-01 13:30:00,
2014-03-01 07:35:00,51.6,38.6,29.88,SSE,165,2.0,29.0,61,0.00,,,0.00,33,Wunderground v.1.15,2014-03-01 13:35:00,
2014-03-01 07:40:00,51.8,38.8,29.88,SSE,165,2.0,2.0,61,0.00,,,0.00,69,Wunderground v.1.15,2014-03-01 13:40:00,
2014-03-01 07:45:00,52.2,38.7,29.88,SSE,165,1.0,29.0,60,0.00,,,0.00,56,Wunderground v.1.15,2014-03-01 13:45:00,
2014-03-01 07:50:00,52.7,38.8,29.88,SSE,165,1.0,1.0,59,0.00,,,0.00,53,Wunderground v.1.15,2014-03-01 13:50:00,
2014-03-01 07:55:00,53.2,40.1,29.89,SSE,165,0.0,29.0,61,0.00,,,0.00,128,Wunderground v.1.15,2014-03-01 13:55:00,
2014-03-01 08:05:00,53.9,41.2,29.89,SSE,165,0.0,29.0,62,0.00,,,0.00,127,Wunderground v.1.15,2014-03-01 14:05:00,
2014-03-01 08:10:00,54.6,41.0,29.89,SSE,165,0.0,29.0,60,0.00,,,0.00,137,Wunderground v.1.15,2014-03-01 14:10:00,
2014-03-01 08:15:00,55.1,39.7,29.89,SSE,165,0.0,29.0,56,0.00,,,0.00,213,Wunderground v.1.15,2014-03-01 14:15:00,
2014-03-01 08:20:00,56.1,39.2,29.89,SSE,165,0.0,29.0,53,0.00,,,0.00,230,Wunderground v.1.15,2014-03-01 14:20:00,
2014-03-01 08:25:00,57.3,39.8,29.90,SSE,165,0.0,29.0,52,0.00,,,0.00,250,Wunderground v.1.15,2014-03-01 14:25:00,
2014-03-01 08:30:00,58.1,40.1,29.90,SSE,165,0.0,29.0,51,0.00,,,0.00,267,Wunderground v.1.15,2014-03-01 14:30:00,
2014-03-01 08:40:00,60.3,42.1,29.90,West,280,1.0,29.0,51,0.00,,,0.00,301,Wunderground v.1.15,2014-03-01 14:40:00,
2014-03-01 08:45:00,61.2,42.9,29.90,West,280,1.0,29.0,51,0.00,,,0.00,316,Wunderground v.1.15,2014-03-01 14:45:00,
2014-03-01 08:50:00,63.5,41.2,29.91,SSW,208,2.0,29.0,44,0.00,,,0.00,336,Wunderground v.1.15,2014-03-01 14:50:00,
2014-03-01 08:55:00,64.5,42.1,29.91,SSW,207,5.0,29.0,44,0.00,,,0.00,353,Wunderground v.1.15,2014-03-01 14:55:00,
2014-03-01 09:00:00,65.2,42.1,29.91,SSW,194,5.0,29.0,43,0.00,,,0.00,371,Wunderground v.1.15,2014-03-01 15:00:00,
2014-03-01 09:05:00,65.6,41.9,29.91,South,182,5.0,29.0,42,0.00,,,0.00,387,Wunderground v.1.15,2014-03-01 15:05:00,
2014-03-01 09:15:00,66.5,43.3,29.92,South,172,5.0,29.0,43,0.00,,,0.00,418,Wunderground v.1.15,2014-03-01 15:15:00,
2014-03-01 09:20:00,67.4,43.5,29.92,South,173,3.0,29.0,42,0.00,,,0.00,436,Wunderground v.1.15,2014-03-01 15:20:00,
2014-03-01 09:25:00,67.7,43.1,29.92,SSW,205,3.0,29.0,41,0.00,,,0.00,452,Wunderground v.1.15,2014-03-01 15:25:00,
2014-03-01 09:30:00,67.9,43.3,29.92,SW,217,4.0,4.0,41,0.00,,,0.00,468,Wunderground v.1.15,2014-03-01 15:30:00,
2014-03-01 09:35:00,69.0,43.0,29.92,South,180,3.0,29.0,39,0.00,,,0.00,483,Wunderground v.1.15,2014-03-01 15:35:00,
2014-03-01 09:45:00,70.0,43.2,29.92,SSE,153,2.0,29.0,38,0.00,,,0.00,512,Wunderground v.1.15,2014-03-01 15:45:00,
2014-03-01 09:50:00,70.2,43.4,29.92,South,188,3.0,29.0,38,0.00,,,0.00,526,Wunderground v.1.15,2014-03-01 15:50:00,
2014-03-01 09:55:00,70.8,43.2,29.92,SW,221,3.0,29.0,37,0.00,,,0.00,543,Wunderground v.1.15,2014-03-01 15:55:00,
2014-03-01 10:00:00,70.8,43.2,29.92,SSW,201,4.0,4.0,37,0.00,,,0.00,557,Wunderground v.1.15,2014-03-01 16:00:00,
2014-03-01 10:05:00,71.7,43.3,29.92,SSW,207,4.0,8.0,36,0.00,,,0.00,570,Wunderground v.1.15,2014-03-01 16:05:00,
2014-03-01 10:10:00,72.0,43.6,29.92,SSW,196,5.0,29.0,36,0.00,,,0.00,585,Wunderground v.1.15,2014-03-01 16:10:00,
2014-03-01 10:15:00,72.6,44.8,29.92,SSW,192,5.0,29.0,37,0.00,,,0.00,598,Wunderground v.1.15,2014-03-01 16:15:00,
2014-03-01 10:25:00,73.1,43.8,29.92,SW,228,5.0,29.0,35,0.00,,,0.00,622,Wunderground v.1.15,2014-03-01 16:25:00,
2014-03-01 10:30:00,72.9,43.6,29.92,SSW,196,6.0,6.0,35,0.00,,,0.00,636,Wunderground v.1.15,2014-03-01 16:30:00,
2014-03-01 10:35:00,73.3,44.7,29.92,South,182,5.0,7.0,36,0.00,,,0.00,647,Wunderground v.1.15,2014-03-01 16:35:00,
2014-03-01 10:40:00,73.3,44.0,29.93,SSE,161,5.0,5.0,35,0.00,,,0.00,659,Wunderground v.1.15,2014-03-01 16:40:00,
2014-03-01 10:45:00,73.6,44.2,29.93,South,170,5.0,29.0,35,0.00,,,0.00,670,Wunderground v.1.15,2014-03-01 16:45:00,
2014-03-01 10:50:00,73.5,44.9,29.93,South,170,5.0,29.0,36,0.00,,,0.00,680,Wunderground v.1.15,2014-03-01 16:50:00,
2014-03-01 11:00:00,75.0,45.5,29.93,SE,140,5.0,5.0,35,0.00,,,0.00,701,Wunderground v.1.15,2014-03-01 17:00:00,
2014-03-01 11:05:00,74.8,45.3,29.93,South,181,5.0,29.0,35,0.00,,,0.00,712,Wunderground v.1.15,2014-03-01 17:05:00,
2014-03-01 11:10:00,75.1,46.3,29.93,SE,136,5.0,5.0,36,0.00,,,0.00,722,Wunderground v.1.15,2014-03-01 17:10:00,
2014-03-01 11:15:00,75.8,47.7,29.92,WSW,256,4.0,29.0,37,0.00,,,0.00,735,Wunderground v.1.15,2014-03-01 17:15:00,
2014-03-01 11:20:00,76.0,46.4,29.92,South,174,5.0,29.0,35,0.00,,,0.00,744,Wunderground v.1.15,2014-03-01 17:20:00,
2014-03-01 11:25:00,76.2,45.8,29.92,South,188,6.0,29.0,34,0.00,,,0.00,751,Wunderground v.1.15,2014-03-01 17:25:00,
2014-03-01 11:30:00,76.6,46.1,29.92,SSW,205,6.0,6.0,34,0.00,,,0.00,752,Wunderground v.1.15,2014-03-01 17:30:00,
2014-03-01 11:40:00,77.2,47.4,29.92,SSW,213,5.0,29.0,35,0.00,,,0.00,773,Wunderground v.1.15,2014-03-01 17:40:00,
2014-03-01 11:45:00,77.4,47.6,29.92,South,176,5.0,29.0,35,0.00,,,0.00,782,Wunderground v.1.15,2014-03-01 17:45:00,
2014-03-01 11:50:00,78.3,46.8,29.91,South,187,5.0,29.0,33,0.00,,,0.00,791,Wunderground v.1.15,2014-03-01 17:50:00,
2014-03-01 11:55:00,78.6,46.3,29.91,SW,216,6.0,29.0,32,0.00,,,0.00,795,Wunderground v.1.15,2014-03-01 17:55:00,
2014-03-01 12:00:00,78.5,47.0,29.91,South,175,6.0,29.0,33,0.00,,,0.00,800,Wunderground v.1.15,2014-03-01 18:00:00,
2014-03-01 12:05:00,79.1,46.7,29.91,SSE,154,7.0,29.0,32,0.00,,,0.00,802,Wunderground v.1.15,2014-03-01 18:05:00,
2014-03-01 12:15:00,80.4,47.8,29.90,SSE,162,7.0,29.0,32,0.00,,,0.00,789,Wunderground v.1.15,2014-03-01 18:15:00,
2014-03-01 12:20:00,80.2,45.9,29.90,South,186,6.0,29.0,30,0.00,,,0.00,687,Wunderground v.1.15,2014-03-01 18:20:00,
2014-03-01 12:25:00,80.1,45.9,29.90,SSW,196,6.0,29.0,30,0.00,,,0.00,802,Wunderground v.1.15,2014-03-01 18:25:00,
2014-03-01 12:30:00,80.8,47.3,29.90,SSE,155,7.0,29.0,31,0.00,,,0.00,800,Wunderground v.1.15,2014-03-01 18:30:00,
2014-03-01 12:35:00,81.0,48.4,29.90,SSE,157,8.0,29.0,32,0.00,,,0.00,805,Wunderground v.1.15,2014-03-01 18:35:00,
2014-03-01 12:40:00,81.3,46.9,29.90,SW,217,8.0,29.0,30,0.00,,,0.00,805,Wunderground v.1.15,2014-03-01 18:40:00,
2014-03-01 12:50:00,81.6,47.2,29.89,SSW,193,8.0,29.0,30,0.00,,,0.00,802,Wunderground v.1.15,2014-03-01 18:50:00,
2014-03-01 12:55:00,81.3,47.8,29.89,SSW,196,7.0,29.0,31,0.00,,,0.00,807,Wunderground v.1.15,2014-03-01 18:55:00,
2014-03-01 13:00:00,82.0,48.4,29.89,SW,224,7.0,7.0,31,0.00,,,0.00,803,Wunderground v.1.15,2014-03-01 19:00:00,
2014-03-01 13:05:00,81.9,48.3,29.88,SSW,192,8.0,8.0,31,0.00,,,0.00,803,Wunderground v.1.15,2014-03-01 19:05:00,
2014-03-01 13:10:00,82.5,48.8,29.88,SSE,168,9.0,9.0,31,0.00,,,0.00,800,Wunderground v.1.15,2014-03-01 19:10:00,
2014-03-01 13:15:00,82.0,47.5,29.87,SSE,156,8.0,10.0,30,0.00,,,0.00,800,Wunderground v.1.15,2014-03-01 19:15:00,
2014-03-01 13:25:00,82.9,48.3,29.86,SE,138,8.0,29.0,30,0.00,,,0.00,798,Wunderground v.1.15,2014-03-01 19:25:00,
2014-03-01 13:30:00,82.6,47.1,29.86,SE,142,10.0,10.0,29,0.00,,,0.00,802,Wunderground v.1.15,2014-03-01 19:30:00,
2014-03-01 13:35:00,82.8,48.2,29.85,SSE,165,10.0,29.0,30,0.00,,,0.00,831,Wunderground v.1.15,2014-03-01 19:35:00,
2014-03-01 13:40:00,83.0,50.9,29.85,SE,132,9.0,29.0,33,0.00,,,0.00,751,Wunderground v.1.15,2014-03-01 19:40:00,
2014-03-01 13:45:00,81.5,51.2,29.84,ESE,108,11.0,29.0,35,0.00,,,0.00,295,Wunderground v.1.15,2014-03-01 19:45:00,
2014-03-01 13:50:00,80.9,52.2,29.84,South,178,12.0,12.0,37,0.00,,,0.00,802,Wunderground v.1.15,2014-03-01 19:50:00,
2014-03-01 14:00:00,81.6,52.1,29.84,ESE,118,12.0,12.0,36,0.00,,,0.00,773,Wunderground v.1.15,2014-03-01 20:00:00,
2014-03-01 14:10:00,81.5,52.7,29.83,ESE,111,11.0,13.0,37,0.00,,,0.00,816,Wunderground v.1.15,2014-03-01 20:10:00,
2014-03-01 14:15:00,82.2,53.3,29.83,ESE,117,11.0,13.0,37,0.00,,,0.00,831,Wunderground v.1.15,2014-03-01 20:15:00,
2014-03-01 14:20:00,81.6,54.2,29.83,ESE,107,12.0,12.0,39,0.00,,,0.00,840,Wunderground v.1.15,2014-03-01 20:20:00,
2014-03-01 14:25:00,82.0,53.9,29.83,South,175,13.0,13.0,38,0.00,,,0.00,758,Wunderground v.1.15,2014-03-01 20:25:00,
2014-03-01 14:35:00,83.0,54.8,29.82,ESE,119,10.0,21.0,38,0.00,,,0.00,761,Wunderground v.1.15,2014-03-01 20:35:00,
2014-03-01 14:40:00,82.7,55.2,29.82,South,182,12.0,12.0,39,0.00,,,0.00,717,Wunderground v.1.15,2014-03-01 20:40:00,
2014-03-01 14:45:00,82.7,55.9,29.82,SE,138,13.0,13.0,40,0.00,,,0.00,700,Wunderground v.1.15,2014-03-01 20:45:00,
2014-03-01 14:50:00,82.8,56.7,29.82,SE,140,11.0,21.0,41,0.00,,,0.00,673,Wunderground v.1.15,2014-03-01 20:50:00,
2014-03-01 14:55:00,82.6,57.2,29.82,SE,134,13.0,21.0,42,0.00,,,0.00,636,Wunderground v.1.15,2014-03-01 20:55:00,
2014-03-01 15:00:00,82.3,58.2,29.81,ESE,114,16.0,16.0,44,0.00,,,0.00,684,Wunderground v.1.15,2014-03-01 21:00:00,
2014-03-01 15:10:00,83.1,57.6,29.81,SE,143,14.0,21.0,42,0.00,,,0.00,663,Wunderground v.1.15,2014-03-01 21:10:00,
2014-03-01 15:15:00,82.4,59.5,29.81,South,169,15.0,21.0,46,0.00,,,0.00,374,Wunderground v.1.15,2014-03-01 21:15:00,
2014-03-01 15:20:00,81.2,59.6,29.81,SSE,157,16.0,16.0,48,0.00,,,0.00,218,Wunderground v.1.15,2014-03-01 21:20:00,
2014-03-01 15:25:00,80.7,60.3,29.81,ESE,119,16.0,21.0,50,0.00,,,0.00,218,Wunderground v.1.15,2014-03-01 21:25:00,
2014-03-01 15:30:00,80.0,60.2,29.82,South,169,15.0,15.0,51,0.00,,,0.00,202,Wunderground v.1.15,2014-03-01 21:30:00,
2014-03-01 15:40:00,79.7,60.0,29.81,SSE,151,14.0,23.0,51,0.00,,,0.00,185,Wunderground v.1.15,2014-03-01 21:40:00,
2014-03-01 15:45:00,79.3,60.7,29.81,SSE,167,15.0,23.0,53,0.00,,,0.00,190,Wunderground v.1.15,2014-03-01 21:45:00,
2014-03-01 15:50:00,78.6,60.6,29.80,SSE,153,15.0,15.0,54,0.00,,,0.00,267,Wunderground v.1.15,2014-03-01 21:50:00,
2014-03-01 15:55:00,78.3,60.8,29.80,SE,141,14.0,21.0,55,0.00,,,0.00,241,Wunderground v.1.15,2014-03-01 21:55:00,
2014-03-01 16:00:00,77.8,61.8,29.80,East,98,15.0,21.0,58,0.00,,,0.00,207,Wunderground v.1.15,2014-03-01 22:00:00,
2014-03-01 16:05:00,77.3,62.3,29.80,SE,128,14.0,21.0,60,0.00,,,0.00,225,Wunderground v.1.15,2014-03-01 22:05:00,
2014-03-01 16:15:00,76.0,62.9,29.80,SE,140,15.0,21.0,64,0.00,,,0.00,171,Wunderground v.1.15,2014-03-01 22:15:00,
2014-03-01 16:20:00,75.4,62.8,29.80,SE,138,14.0,14.0,65,0.00,,,0.00,197,Wunderground v.1.15,2014-03-01 22:20:00,
2014-03-01 16:25:00,75.0,62.9,29.80,SE,129,16.0,16.0,66,0.00,,,0.00,225,Wunderground v.1.15,2014-03-01 22:25:00,
2014-03-01 16:30:00,75.4,63.2,29.80,SE,130,17.0,21.0,66,0.00,,,0.00,531,Wunderground v.1.15,2014-03-01 22:30:00,
2014-03-01 16:35:00,75.4,62.8,29.79,SE,128,16.0,21.0,65,0.00,,,0.00,183,Wunderground v.1.15,2014-03-01 22:35:00,
2014-03-01 16:45:00,75.5,62.9,29.79,SSE,165,16.0,23.0,65,0.00,,,0.00,364,Wunderground v.1.15,2014-03-01 22:45:00,
2014-03-01 16:50:00,76.3,63.2,29.79,SSE,148,15.0,22.0,64,0.00,,,0.00,374,Wunderground v.1.15,2014-03-01 22:50:00,
2014-03-01 16:55:00,75.7,62.7,29.79,SSE,165,15.0,22.0,64,0.00,,,0.00,327,Wunderground v.1.15,2014-03-01 22:55:00,
2014-03-01 17:00:00,75.0,62.9,29.80,SSE,164,16.0,25.0,66,0.00,,,0.00,172,Wunderground v.1.15,2014-03-01 23:00:00,
2014-03-01 17:05:00,74.3,62.6,29.80,SSE,148,16.0,25.0,67,0.00,,,0.00,230,Wunderground v.1.15,2014-03-01 23:05:00,
2014-03-01 17:10:00,73.7,62.5,29.79,SE,124,15.0,15.0,68,0.00,,,0.00,253,Wunderground v.1.15,2014-03-01 23:10:00,
2014-03-01 17:20:00,73.3,62.5,29.79,ESE,109,15.0,15.0,69,0.00,,,0.00,125,Wunderground v.1.15,2014-03-01 23:20:00,
2014-03-01 17:25:00,73.4,62.6,29.80,SSE,168,15.0,21.0,69,0.00,,,0.00,135,Wunderground v.1.15,2014-03-01 23:25:00,
2014-03-01 17:30:00,73.3,62.5,29.79,SSE,155,15.0,21.0,69,0.00,,,0.00,67,Wunderground v.1.15,2014-03-01 23:30:00,
2014-03-01 17:35:00,73.2,62.4,29.80,SSE,158,15.0,21.0,69,0.00,,,0.00,134,Wunderground v.1.15,2014-03-01 23:35:00,
2014-03-01 17:40:00,73.0,62.2,29.80,SE,136,14.0,21.0,69,0.00,,,0.00,83,Wunderground v.1.15,2014-03-01 23:40:00,
2014-03-01 17:50:00,72.5,61.7,29.81,SE,136,14.0,14.0,69,0.00,,,0.00,35,Wunderground v.1.15,2014-03-01 23:50:00,
2014-03-01 17:55:00,72.3,61.6,29.81,SSE,163,13.0,21.0,69,0.00,,,0.00,30,Wunderground v.1.15,2014-03-01 23:55:00,
2014-03-01 18:00:00,72.2,61.5,29.81,SSE,153,11.0,21.0,69,0.00,,,0.00,25,Wunderground v.1.15,2014-03-02 00:00:00,
2014-03-01 18:05:00,72.0,61.3,29.81,SSE,163,13.0,21.0,69,0.00,,,0.00,19,Wunderground v.1.15,2014-03-02 00:05:00,
2014-03-01 18:10:00,71.8,61.1,29.81,SSE,157,14.0,14.0,69,0.00,,,0.00,16,Wunderground v.1.15,2014-03-02 00:10:00,
2014-03-01 18:15:00,71.6,60.9,29.80,SSE,159,17.0,17.0,69,0.00,,,0.00,11,Wunderground v.1.15,2014-03-02 00:15:00,
2014-03-01 18:25:00,71.3,61.4,29.81,SSE,167,14.0,21.0,71,0.00,,,0.00,0,Wunderground v.1.15,2014-03-02 00:25:00,
2014-03-01 18:30:00,71.2,61.3,29.81,South,174,13.0,13.0,71,0.00,,,0.00,0,Wunderground v.1.15,2014-03-02 00:30:00,
2014-03-01 18:35:00,71.1,61.6,29.81,SSE,164,13.0,20.0,72,0.00,,,0.00,0,Wunderground v.1.15,2014-03-02 00:35:00,
2014-03-01 18:40:00,71.0,61.5,29.81,South,186,13.0,13.0,72,0.00,,,0.00,0,Wunderground v.1.15,2014-03-02 00:40:00,
2014-03-01 18:45:00,70.9,61.4,29.81,South,182,13.0,21.0,72,0.00,,,0.00,0,Wunderground v.1.15,2014-03-02 00:45:00,
2014-03-01 18:50:00,70.9,61.4,29.80,SE,145,12.0,22.0,72,0.00,,,0.00,0,Wunderground v.1.15,2014-03-02 00:50:00,
2014-03-01 19:00:00,71.0,61.9,29.81,SSE,150,13.0,21.0,73,0.00,,,0.00,0,Wunderground v.1.15,2014-03-02 01:00:00,
2014-03-01 19:05:00,71.1,62.0,29.81,South,180,13.0,21.0,73,0.00,,,0.00,0,Wunderground v.1.15,2014-03-02 01:05:00,
2014-03-01 19:10:00,71.2,62.1,29.81,South,179,12.0,12.0,73,0.00,,,0.00,0,Wunderground v.1.15,2014-03-02 01:10:00,
2014-03-01 19:15:00,71.2,62.1,29.81,SSE,164,12.0,21.0,73,0.00,,,0.00,0,Wunderground v.1.15,2014-03-02 01:15:00,
2014-03-01 19:20:00,71.2,62.1,29.81,SSE,163,13.0,21.0,73,0.00,,,0.00,0,Wunderground v.1.15,2014-03-02 01:20:00,
2014-03-01 19:25:00,71.2,62.1,29.82,South,185,12.0,21.0,73,0.00,,,0.00,0,Wunderground v.1.15,2014-03-02 01:25:00,
2014-03-01 19:35:00,71.1,62.4,29.82,SSE,156,13.0,21.0,74,0.00,,,0.00,0,Wunderground v.1.15,2014-03-02 01:35:00,
2014-03-01 19:40:00,71.1,62.4,29.82,SSE,167,11.0,11.0,74,0.00,,,0.00,0,Wunderground v.1.15,2014-03-02 01:40:00,
2014-03-01 19:45:00,71.0,62.3,29.82,SSE,151,12.0,17.0,74,0.00,,,0.00,0,Wunderground v.1.15,2014-03-02 01:45:00,
2014-03-01 19:50:00,71.0,62.7,29.82,SSE,148,13.0,21.0,75,0.00,,,0.00,0,Wunderground v.1.15,2014-03-02 01:50:00,
2014-03-01 19:55:00,71.0,62.7,29.82,SSE,156,13.0,21.0,75,0.00,,,0.00,0,Wunderground v.1.15,2014-03-02 01:55:00,
2014-03-01 20:00:00,71.0,62.7,29.81,SE,146,14.0,14.0,75,0.00,,,0.00,0,Wunderground v.1.15,2014-03-02 02:00:00,
2014-03-01 20:05:00,71.0,62.7,29.82,SE,141,14.0,21.0,75,0.00,,,0.00,0,Wunderground v.1.15,2014-03-02 02:05:00,
2014-03-01 20:15:00,71.0,62.7,29.82,SE,134,13.0,21.0,75,0.00,,,0.00,0,Wunderground v.1.15,2014-03-02 02:15:00,
2014-03-01 20:20:00,71.0,62.7,29.82,SE,142,12.0,21.0,75,0.00,,,0.00,0,Wunderground v.1.15,2014-03-02 02:20:00,
2014-03-01 20:25:00,71.1,62.8,29.83,SSE,164,13.0,21.0,75,0.00,,,0.00,0,Wunderground v.1.15,2014-03-02 02:25:00,
2014-03-01 20:30:00,71.1,62.8,29.83,SE,128,13.0,21.0,75,0.00,,,0.00,0,Wunderground v.1.15,2014-03-02 02:30:00,
2014-03-01 20:35:00,71.1,62.8,29.83,SSE,159,13.0,21.0,75,0.00,,,0.00,0,Wunderground v.1.15,2014-03-02 02:35:00,
2014-03-01 20:40:00,71.2,62.9,29.83,South,175,13.0,13.0,75,0.00,,,0.00,0,Wunderground v.1.15,2014-03-02 02:40:00,
2014-03-01 20:50:00,71.3,62.6,29.82,SSE,161,13.0,13.0,74,0.00,,,0.00,0,Wunderground v.1.15,2014-03-02 02:50:00,
2014-03-01 20:55:00,71.2,62.5,29.82,SSE,154,13.0,21.0,74,0.00,,,0.00,0,Wunderground v.1.15,2014-03-02 02:55:00,
2014-03-01 21:00:00,71.3,62.6,29.82,South,187,13.0,13.0,74,0.00,,,0.00,0,Wunderground v.1.15,2014-03-02 03:00:00,
2014-03-01 21:05:00,71.2,62.5,29.82,South,176,13.0,21.0,74,0.00,,,0.00,0,Wunderground v.1.15,2014-03-02 03:05:00,
2014-03-01 21:10:00,71.2,62.5,29.82,SE,145,12.0,21.0,74,0.00,,,0.00,0,Wunderground v.1.15,2014-03-02 03:10:00,
2014-03-01 21:20:00,71.1,62.8,29.84,South,189,13.0,13.0,75,0.00,,,0.00,0,Wunderground v.1.15,2014-03-02 03:20:00,
2014-03-01 21:25:00,71.1,62.8,29.85,SSE,167,13.0,17.0,75,0.00,,,0.00,0,Wunderground v.1.15,2014-03-02 03:25:00,
2014-03-01 21:30:00,71.0,62.7,29.84,SSE,167,13.0,21.0,75,0.00,,,0.00,0,Wunderground v.1.15,2014-03-02 03:30:00,
2014-03-01 21:35:00,71.0,62.7,29.84,South,178,12.0,21.0,75,0.00,,,0.00,0,Wunderground v.1.15,2014-03-02 03:35:00,
2014-03-01 21:40:00,71.0,62.7,29.85,SSE,159,12.0,12.0,75,0.00,,,0.00,0,Wunderground v.1.15,2014-03-02 03:40:00,
2014-03-01 21:45:00,70.9,62.6,29.85,South,183,11.0,21.0,75,0.00,,,0.00,0,Wunderground v.1.15,2014-03-02 03:45:00,
2014-03-01 21:55:00,70.9,62.6,29.85,SE,135,12.0,21.0,75,0.00,,,0.00,0,Wunderground v.1.15,2014-03-02 03:55:00,
2014-03-01 22:00:00,70.9,62.6,29.85,SSE,158,13.0,13.0,75,0.00,,,0.00,0,Wunderground v.1.15,2014-03-02 04:00:00,
2014-03-01 22:05:00,70.9,62.6,29.86,South,173,12.0,21.0,75,0.00,,,0.00,0,Wunderground v.1.15,2014-03-02 04:05:00,
2014-03-01 22:10:00,70.9,62.6,29.86,SSE,148,11.0,21.0,75,0.00,,,0.00,0,Wunderground v.1.15,2014-03-02 04:10:00,
2014-03-01 22:15:00,70.9,62.6,29.86,SSE,149,10.0,21.0,75,0.00,,,0.00,0,Wunderground v.1.15,2014-03-02 04:15:00,
2014-03-01 22:20:00,71.0,62.7,29.86,South,175,11.0,21.0,75,0.00,,,0.00,0,Wunderground v.1.15,2014-03-02 04:20:00,
2014-03-01 22:30:00,71.0,62.7,29.85,South,179,11.0,11.0,75,0.00,,,0.00,0,Wunderground v.1.15,2014-03-02 04:30:00,
2014-03-01 22:35:00,70.9,62.6,29.85,South,190,11.0,21.0,75,0.00,,,0.00,0,Wunderground v.1.15,2014-03-02 04:35:00,
2014-03-01 22:40:00,70.9,62.2,29.84,SSE,165,11.0,21.0,74,0.00,,,0.00,0,Wunderground v.1.15,2014-03-02 04:40:00,
2014-03-01 22:45:00,70.9,62.2,29.84,SSE,167,12.0,21.0,74,0.00,,,0.00,0,Wunderground v.1.15,2014-03-02 04:45:00,
2014-03-01 22:50:00,71.0,62.3,29.86,SSW,195,12.0,21.0,74,0.00,,,0.00,0,Wunderground v.1.15,2014-03-02 04:50:00,
2014-03-01 22:55:00,71.0,62.3,29.86,South,179,12.0,21.0,74,0.00,,,0.00,0,Wunderground v.1.15,2014-03-02 04:55:00,
2014-03-01 23:05:00,71.2,62.1,29.86,SSE,162,13.0,21.0,73,0.00,,,0.00,0,Wunderground v.1.15,2014-03-02 05:05:00,
2014-03-01 23:10:00,71.1,62.0,29.86,South,177,12.0,21.0,73,0.00,,,0.00,0,Wunderground v.1.15,2014-03-02 05:10:00,
2014-03-01 23:15:00,71.2,62.1,29.86,South,175,12.0,21.0,73,0.00,,,0.00,0,Wunderground v.1.15,2014-03-02 05:15:00,
2014-03-01 23:20:00,71.2,62.1,29.87,SSW,192,12.0,12.0,73,0.00,,,0.00,0,Wunderground v.1.15,2014-03-02 05:20:00,
2014-03-01 23:25:00,71.1,62.0,29.87,South,188,11.0,21.0,73,0.00,,,0.00,0,Wunderground v.1.15,2014-03-02 05:25:00,
2014-03-01 23:30:00,71.1,62.0,29.87,South,182,11.0,11.0,73,0.00,,,0.00,0,Wunderground v.1.15,2014-03-02 05:30:00,
2014-03-01 23:40:00,71.0,62.3,29.85,SSE,157,11.0,21.0,74,0.00,,,0.00,0,Wunderground v.1.15,2014-03-02 05:40:00,
2014-03-01 23:45:00,71.0,62.3,29.87,SSW,198,11.0,21.0,74,0.00,,,0.00,0,Wunderground v.1.15,2014-03-02 05:45:00,
2014-03-01 23:50:00,71.0,62.3,29.87,SSW,196,10.0,10.0,74,0.00,,,0.00,0,Wunderground v.1.15,2014-03-02 05:50:00,
2014-03-01 23:55:00,70.8,62.1,29.86,South,190,9.0,21.0,74,0.00,,,0.00,0,Wunderground v.1.15,2014-03-02 05:55:00,